Time;durP1;ratioP1;P1;durP2;ratioP2;P2;SDS_P1;SDS_P2;PMS_P1;PMS_P2;Temp;Humidity;BMP_temperature;BMP_pressure;BME280_temperature;BME280_humidity;BME280_pressure;Samples;Min_cycle;Max_cycle;Signal;HPM_P1;HPM_P2
2023/03/15 00:01:53;;;;;;;12.70;2.17;;;2.10;99.90;;;;;;5084240;28;20128;-64
2023/03/15 00:04:20;;;;;;;8.65;2.17;;;2.20;99.90;;;;;;5086243;28;20070;-63
2023/03/15 00:06:46;;;;;;;9.13;1.80;;;2.20;99.90;;;;;;5072663;28;20492;-64
2023/03/15 00:09:12;;;;;;;8.27;2.33;;;2.30;99.90;;;;;;5062909;28;20076;-62
2023/03/15 00:11:38;;;;;;;11.13;2.17;;;2.40;99.90;;;;;;5066052;28;20076;-62
2023/03/15 00:14:04;;;;;;;9.82;2.22;;;2.40;99.90;;;;;;5065723;28;20770;-63
2023/03/15 00:16:31;;;;;;;10.80;2.25;;;2.50;99.90;;;;;;5066051;28;20076;-61
2023/03/15 00:18:57;;;;;;;13.05;2.30;;;2.50;99.90;;;;;;5071318;28;20040;-63
2023/03/15 00:21:22;;;;;;;12.60;2.47;;;2.40;99.90;;;;;;5084635;28;20089;-63
2023/03/15 00:23:48;;;;;;;17.15;2.53;;;2.40;99.90;;;;;;5084001;28;20449;-63
2023/03/15 00:26:14;;;;;;;14.07;2.28;;;2.40;99.90;;;;;;5085862;28;20511;-62
2023/03/15 00:28:40;;;;;;;14.65;2.30;;;2.30;99.90;;;;;;5066246;28;20040;-63
2023/03/15 00:31:12;;;;;;;9.15;2.20;;;2.30;99.90;;;;;;5064240;28;20377;-63
2023/03/15 00:33:37;;;;;;;14.55;1.80;;;2.30;99.90;;;;;;5065393;28;20040;-63
2023/03/15 00:36:05;;;;;;;12.27;2.20;;;2.20;99.90;;;;;;5064237;28;20048;-63
2023/03/15 00:38:30;;;;;;;13.10;2.75;;;2.20;99.90;;;;;;5062771;28;20047;-64
2023/03/15 00:40:56;;;;;;;17.73;2.53;;;2.20;99.90;;;;;;5065463;28;20479;-63
2023/03/15 00:43:22;;;;;;;14.40;2.60;;;2.20;99.90;;;;;;5065508;28;20040;-63
2023/03/15 00:45:48;;;;;;;15.60;2.60;;;2.20;99.90;;;;;;5065078;28;20442;-63
2023/03/15 00:48:14;;;;;;;14.98;2.13;;;2.10;99.90;;;;;;5063041;28;20379;-63
2023/03/15 00:50:39;;;;;;;15.35;2.40;;;2.10;99.90;;;;;;5063250;28;20123;-63
2023/03/15 00:53:05;;;;;;;18.88;3.03;;;2.10;99.90;;;;;;5063282;28;20074;-63
2023/03/15 00:55:30;;;;;;;16.33;2.88;;;2.10;99.90;;;;;;5094555;28;20050;-63
2023/03/15 00:57:56;;;;;;;11.57;2.75;;;2.10;99.90;;;;;;5078484;28;20037;-64
2023/03/15 01:00:23;;;;;;;12.18;2.28;;;2.10;99.90;;;;;;5065177;28;20041;-63
2023/03/15 01:02:53;;;;;;;16.10;2.30;;;2.10;99.90;;;;;;5064259;28;20076;-63
2023/03/15 01:05:19;;;;;;;10.88;2.22;;;2.00;99.90;;;;;;5063900;28;20136;-63
2023/03/15 01:07:44;;;;;;;21.45;2.58;;;2.00;99.90;;;;;;5077746;28;20260;-64
2023/03/15 01:10:11;;;;;;;14.13;2.78;;;2.00;99.90;;;;;;5065027;28;20036;-63
2023/03/15 01:12:37;;;;;;;17.60;2.45;;;2.00;99.90;;;;;;5063274;28;20416;-63
2023/03/15 01:15:05;;;;;;;11.63;1.83;;;1.90;99.90;;;;;;5066408;28;20090;-63
2023/03/15 01:17:31;;;;;;;11.75;2.15;;;2.00;99.90;;;;;;5062508;28;20051;-63
2023/03/15 01:19:58;;;;;;;16.85;2.35;;;1.90;99.90;;;;;;5073890;28;20032;-63
2023/03/15 01:22:23;;;;;;;16.92;2.35;;;2.00;99.90;;;;;;5081241;28;20065;-63
2023/03/15 01:24:49;;;;;;;13.40;1.70;;;1.90;99.90;;;;;;5083355;28;20796;-63
2023/03/15 01:27:15;;;;;;;12.18;2.38;;;2.00;99.90;;;;;;5078874;28;20658;-62
2023/03/15 01:29:40;;;;;;;13.68;2.72;;;2.10;99.90;;;;;;5062871;28;20130;-63
2023/03/15 01:32:06;;;;;;;16.45;2.38;;;2.10;99.90;;;;;;5063716;28;20048;-62
2023/03/15 01:34:32;;;;;;;11.38;1.70;;;2.10;99.90;;;;;;5064306;28;20093;-63
2023/03/15 01:36:58;;;;;;;16.77;2.08;;;2.10;99.90;;;;;;5061807;28;20511;-63
2023/03/15 01:39:23;;;;;;;18.98;2.38;;;2.10;99.90;;;;;;5062174;28;20115;-63
2023/03/15 01:41:49;;;;;;;10.98;2.03;;;2.10;99.90;;;;;;5062625;28;20047;-63
2023/03/15 01:44:17;;;;;;;10.55;1.80;;;2.00;99.90;;;;;;5079510;28;20659;-63
2023/03/15 01:46:42;;;;;;;12.75;1.90;;;2.00;99.90;;;;;;5063621;28;20268;-63
2023/03/15 01:49:25;;;;;;;14.05;2.00;;;2.00;99.90;;;;;;5063427;28;20044;-63
2023/03/15 01:51:59;;;;;;;14.38;1.80;;;1.90;99.90;;;;;;5061417;28;20040;-63
2023/03/15 01:54:26;;;;;;;11.77;1.88;;;1.80;99.90;;;;;;5063813;28;20051;-63
2023/03/15 01:56:59;;;;;;;10.25;1.67;;;1.80;99.90;;;;;;5045956;28;20059;-63
2023/03/15 01:59:30;;;;;;;7.40;1.35;;;1.70;99.90;;;;;;5061780;28;20045;-63
2023/03/15 02:01:57;;;;;;;9.02;1.58;;;1.70;99.90;;;;;;5082759;28;20040;-63
2023/03/15 02:04:37;;;;;;;11.88;1.98;;;1.70;99.90;;;;;;5082436;28;20047;-63
2023/03/15 02:07:04;;;;;;;12.60;1.63;;;1.70;99.90;;;;;;5082049;28;20040;-63
2023/03/15 02:10:02;;;;;;;13.32;2.05;;;1.60;99.90;;;;;;5067558;28;20048;-63
2023/03/15 02:12:30;;;;;;;8.10;1.75;;;1.60;99.90;;;;;;5055077;28;20053;-63
2023/03/15 02:14:58;;;;;;;15.57;1.88;;;1.60;99.90;;;;;;5063213;28;20123;-63
2023/03/15 02:17:31;;;;;;;8.40;1.80;;;1.60;99.90;;;;;;5061396;28;20051;-63
2023/03/15 02:20:09;;;;;;;8.88;2.25;;;1.50;99.90;;;;;;5061966;28;20581;-63
2023/03/15 02:22:46;;;;;;;13.57;1.92;;;1.50;99.90;;;;;;5069802;28;20609;-63
2023/03/15 02:25:42;;;;;;;9.30;1.90;;;1.50;99.90;;;;;;5084319;28;20094;-63
2023/03/15 02:28:11;;;;;;;11.45;1.60;;;1.40;99.90;;;;;;5073853;28;20430;-63
2023/03/15 02:30:37;;;;;;;12.93;2.15;;;1.40;99.90;;;;;;5069643;28;20086;-63
2023/03/15 02:33:07;;;;;;;7.82;1.55;;;1.40;99.90;;;;;;5063337;28;20045;-62
2023/03/15 02:35:33;;;;;;;16.13;1.80;;;1.40;99.90;;;;;;5080308;28;20474;-63
2023/03/15 02:38:01;;;;;;;11.43;1.88;;;1.40;99.90;;;;;;5079888;28;20143;-63
2023/03/15 02:40:29;;;;;;;16.83;2.63;;;1.40;99.90;;;;;;5082440;28;20498;-63
2023/03/15 02:43:05;;;;;;;14.30;2.13;;;1.40;99.90;;;;;;5075914;28;20097;-63
2023/03/15 02:45:33;;;;;;;13.20;1.92;;;1.30;99.90;;;;;;5062893;28;20051;-63
2023/03/15 02:48:01;;;;;;;15.30;2.17;;;1.30;99.90;;;;;;5062752;28;20051;-63
2023/03/15 02:50:27;;;;;;;14.77;2.40;;;1.30;99.90;;;;;;5078705;28;20325;-63
2023/03/15 02:52:52;;;;;;;17.77;1.98;;;1.30;99.90;;;;;;5073386;28;20470;-63
2023/03/15 02:55:18;;;;;;;18.38;2.45;;;1.30;99.90;;;;;;5061754;28;20468;-64
2023/03/15 02:57:44;;;;;;;9.15;1.70;;;1.30;99.90;;;;;;5060903;28;20088;-63
2023/03/15 03:00:13;;;;;;;11.90;1.98;;;1.30;99.90;;;;;;5077129;28;20097;-63
2023/03/15 03:02:41;;;;;;;18.70;1.90;;;1.30;99.90;;;;;;5081563;28;20376;-62
2023/03/15 03:05:07;;;;;;;20.52;2.38;;;1.30;99.90;;;;;;5083461;28;20403;-63
2023/03/15 03:07:33;;;;;;;13.75;1.80;;;1.30;99.90;;;;;;5079431;28;20040;-62
2023/03/15 03:09:59;;;;;;;15.82;2.20;;;1.30;99.90;;;;;;5066867;28;20130;-62
2023/03/15 03:12:24;;;;;;;11.45;1.73;;;1.30;99.90;;;;;;5061388;28;20711;-62
2023/03/15 03:14:50;;;;;;;9.75;1.58;;;1.30;99.90;;;;;;5068802;28;20375;-62
2023/03/15 03:17:15;;;;;;;13.00;2.42;;;1.30;99.90;;;;;;5065059;28;20570;-63
2023/03/15 03:19:41;;;;;;;11.07;1.80;;;1.30;99.90;;;;;;5077112;28;20040;-62
2023/03/15 03:22:07;;;;;;;12.73;1.73;;;1.20;99.90;;;;;;5083926;28;20636;-62
2023/03/15 03:24:32;;;;;;;16.08;2.05;;;1.20;99.90;;;;;;5071183;28;20029;-62
2023/03/15 03:26:59;;;;;;;14.80;2.05;;;1.20;99.90;;;;;;5066416;28;20048;-62
2023/03/15 03:29:25;;;;;;;13.80;1.77;;;1.10;99.90;;;;;;5067173;28;20040;-63
2023/03/15 03:31:51;;;;;;;9.63;1.58;;;1.10;99.90;;;;;;5064975;28;20052;-62
2023/03/15 03:34:17;;;;;;;9.93;1.73;;;1.10;99.90;;;;;;5066989;28;20067;-63
2023/03/15 03:36:43;;;;;;;7.55;2.03;;;1.10;99.90;;;;;;5065539;28;20040;-63
2023/03/15 03:39:09;;;;;;;12.48;1.70;;;1.10;99.90;;;;;;5063478;28;20048;-63
2023/03/15 03:41:35;;;;;;;9.55;1.70;;;1.10;99.90;;;;;;5086007;28;20724;-63
2023/03/15 03:44:00;;;;;;;5.00;1.20;;;1.10;99.90;;;;;;5077280;28;20032;-63
2023/03/15 03:46:27;;;;;;;12.15;2.25;;;1.10;99.90;;;;;;5080574;28;20127;-61
2023/03/15 03:48:53;;;;;;;17.33;1.98;;;1.10;99.90;;;;;;5085744;28;20127;-63
2023/03/15 03:51:19;;;;;;;13.10;1.73;;;1.10;99.90;;;;;;5086805;28;20131;-62
2023/03/15 03:53:44;;;;;;;12.52;2.55;;;1.10;99.90;;;;;;5066243;28;20170;-63
2023/03/15 03:56:10;;;;;;;8.27;1.55;;;1.10;99.90;;;;;;5082224;28;20111;-62
2023/03/15 03:58:36;;;;;;;13.55;1.83;;;1.10;99.90;;;;;;5066088;28;20041;-63
2023/03/15 04:01:02;;;;;;;11.07;1.70;;;1.00;99.90;;;;;;5064424;28;20496;-63
2023/03/15 04:03:28;;;;;;;9.98;1.98;;;1.00;99.90;;;;;;5065811;28;20392;-62
2023/03/15 04:05:58;;;;;;;10.27;2.13;;;1.00;99.90;;;;;;5066256;28;20032;-62
2023/03/15 04:08:25;;;;;;;11.30;1.92;;;0.90;99.90;;;;;;5064034;28;20051;-62
2023/03/15 04:10:57;;;;;;;10.88;1.55;;;0.90;99.90;;;;;;5066082;28;20070;-62
2023/03/15 04:13:23;;;;;;;10.68;1.90;;;0.90;99.90;;;;;;5081967;28;20123;-62
2023/03/15 04:15:49;;;;;;;12.68;2.35;;;0.90;99.90;;;;;;5064737;28;20067;-63
2023/03/15 04:18:16;;;;;;;15.98;1.98;;;0.90;99.90;;;;;;5063794;28;20044;-62
2023/03/15 04:20:48;;;;;;;9.73;2.22;;;0.90;99.90;;;;;;5064818;28;20416;-62
2023/03/15 04:23:15;;;;;;;7.50;1.73;;;0.90;99.90;;;;;;5063694;28;20047;-62
2023/03/15 04:25:41;;;;;;;13.00;1.75;;;0.80;99.90;;;;;;5064903;28;20032;-62
2023/03/15 04:28:09;;;;;;;12.07;1.63;;;0.80;99.90;;;;;;5065941;28;20056;-62
2023/03/15 04:30:36;;;;;;;13.15;1.80;;;0.80;99.90;;;;;;5064382;28;20052;-62
2023/03/15 04:33:02;;;;;;;15.00;1.80;;;0.80;99.90;;;;;;5064389;28;20066;-62
2023/03/15 04:35:36;;;;;;;16.58;1.98;;;0.80;99.90;;;;;;5064710;28;20047;-63
2023/03/15 04:38:02;;;;;;;13.23;1.80;;;0.80;99.90;;;;;;5061729;28;20053;-62
2023/03/15 04:40:29;;;;;;;11.38;1.35;;;0.80;99.90;;;;;;5065627;28;20556;-62
2023/03/15 04:42:55;;;;;;;10.65;1.70;;;0.80;99.90;;;;;;5063661;28;20044;-62
2023/03/15 04:45:22;;;;;;;9.65;1.60;;;0.80;99.90;;;;;;5067014;28;20483;-62
2023/03/15 04:47:51;;;;;;;12.88;1.85;;;0.80;99.90;;;;;;5064377;28;20067;-63
2023/03/15 04:50:18;;;;;;;9.55;1.67;;;0.80;99.90;;;;;;5065621;28;20111;-62
2023/03/15 04:52:44;;;;;;;13.25;1.90;;;0.80;99.90;;;;;;5045474;28;20443;-62
2023/03/15 04:55:10;;;;;;;10.73;2.17;;;0.70;99.90;;;;;;5065419;28;20040;-62
2023/03/15 04:57:36;;;;;;;18.10;2.10;;;0.70;99.90;;;;;;5062694;28;20079;-63
2023/03/15 05:00:06;;;;;;;11.15;1.73;;;0.70;99.90;;;;;;5065187;28;20476;-63
2023/03/15 05:02:32;;;;;;;14.15;2.08;;;0.70;99.90;;;;;;5063023;28;20052;-62
2023/03/15 05:04:57;;;;;;;10.00;1.70;;;0.70;99.90;;;;;;5063383;28;20045;-62
2023/03/15 05:07:23;;;;;;;8.68;1.65;;;0.70;99.90;;;;;;5061473;28;20478;-61
2023/03/15 05:09:48;;;;;;;9.27;1.70;;;0.60;99.90;;;;;;5065032;28;20040;-62
2023/03/15 05:12:14;;;;;;;14.38;2.22;;;0.60;99.90;;;;;;5065020;28;20040;-61
2023/03/15 05:14:40;;;;;;;17.17;2.10;;;0.50;99.90;;;;;;5063938;28;20029;-62
2023/03/15 05:17:06;;;;;;;10.23;1.83;;;0.50;99.90;;;;;;5083984;28;20139;-62
2023/03/15 05:19:34;;;;;;;12.45;1.80;;;0.40;99.90;;;;;;5084910;28;20486;-63
2023/03/15 05:22:01;;;;;;;12.30;1.75;;;0.30;99.90;;;;;;5083186;28;20040;-62
2023/03/15 05:24:26;;;;;;;9.73;1.35;;;0.30;99.90;;;;;;5079025;28;20043;-62
2023/03/15 05:26:53;;;;;;;8.18;1.60;;;0.20;99.90;;;;;;5064560;28;20041;-62
2023/03/15 05:29:22;;;;;;;11.88;1.63;;;0.10;99.90;;;;;;5063039;28;20579;-63
2023/03/15 05:31:48;;;;;;;7.63;1.50;;;0.10;99.90;;;;;;5064259;28;20090;-63
2023/03/15 05:34:14;;;;;;;9.68;1.95;;;0.00;99.90;;;;;;5064302;28;20032;-61
2023/03/15 05:36:40;;;;;;;9.85;1.58;;;0.00;99.90;;;;;;5062842;28;20066;-63
2023/03/15 05:39:07;;;;;;;11.95;1.67;;;0.00;99.90;;;;;;5062473;28;20072;-63
2023/03/15 05:41:33;;;;;;;8.55;1.55;;;-0.10;99.90;;;;;;5063228;28;20051;-62
2023/03/15 05:43:58;;;;;;;13.25;2.15;;;-0.10;99.90;;;;;;5064407;28;20029;-63
2023/03/15 05:46:24;;;;;;;11.32;2.00;;;-0.20;99.90;;;;;;5063902;28;20098;-63
2023/03/15 05:48:50;;;;;;;12.30;1.75;;;-0.30;99.90;;;;;;5063727;28;20071;-62
2023/03/15 05:51:15;;;;;;;11.90;2.17;;;-0.30;99.90;;;;;;5063177;28;20040;-61
2023/03/15 05:53:41;;;;;;;9.57;1.40;;;-0.30;99.90;;;;;;5073592;28;20063;-63
2023/03/15 05:56:07;;;;;;;11.02;1.85;;;-0.30;99.90;;;;;;5084298;28;20036;-63
2023/03/15 05:58:33;;;;;;;8.07;1.55;;;-0.30;99.90;;;;;;5060789;28;20056;-62
2023/03/15 06:01:02;;;;;;;14.18;1.67;;;-0.20;99.90;;;;;;5062006;28;20056;-63
2023/03/15 06:03:30;;;;;;;12.43;1.90;;;-0.20;99.90;;;;;;5062137;28;20480;-63
2023/03/15 06:05:56;;;;;;;12.15;2.08;;;-0.10;99.90;;;;;;5063961;28;20048;-62
2023/03/15 06:08:22;;;;;;;11.70;1.98;;;-0.10;99.90;;;;;;5061632;28;20052;-63
2023/03/15 06:10:47;;;;;;;13.45;1.85;;;0.00;99.90;;;;;;5070431;28;20330;-63
2023/03/15 06:13:13;;;;;;;11.82;2.20;;;0.10;99.90;;;;;;5067034;28;20079;-63
2023/03/15 06:15:38;;;;;;;12.32;1.80;;;0.20;99.90;;;;;;5069413;28;20040;-63
2023/03/15 06:18:04;;;;;;;15.13;1.92;;;0.30;99.90;;;;;;5062621;28;20109;-63
2023/03/15 06:20:30;;;;;;;7.85;1.80;;;0.40;99.90;;;;;;5062218;28;20507;-63
2023/03/15 06:22:56;;;;;;;19.00;2.83;;;0.40;99.90;;;;;;5061375;28;20052;-63
2023/03/15 06:25:22;;;;;;;10.93;2.03;;;0.40;99.90;;;;;;5063916;28;20475;-63
2023/03/15 06:27:48;;;;;;;15.35;2.28;;;0.50;99.90;;;;;;5061716;28;20402;-63
2023/03/15 06:30:13;;;;;;;8.57;1.58;;;0.40;99.90;;;;;;5078749;28;20109;-64
2023/03/15 06:32:39;;;;;;;9.95;2.90;;;0.40;99.90;;;;;;5063018;28;20655;-64
2023/03/15 06:35:05;;;;;;;13.63;2.35;;;0.40;99.90;;;;;;5062223;28;20078;-63
2023/03/15 06:37:31;;;;;;;17.60;2.53;;;0.40;99.90;;;;;;5075689;28;20043;-64
2023/03/15 06:39:57;;;;;;;13.50;2.88;;;0.40;99.90;;;;;;5066692;28;20563;-64
2023/03/15 06:42:22;;;;;;;15.18;2.45;;;0.40;99.90;;;;;;5062184;28;20060;-63
2023/03/15 06:44:48;;;;;;;11.15;2.10;;;0.40;99.90;;;;;;5062096;28;20040;-65
2023/03/15 06:47:14;;;;;;;16.40;2.00;;;0.40;99.90;;;;;;5076213;28;20409;-63
2023/03/15 06:49:39;;;;;;;15.18;2.00;;;0.50;99.90;;;;;;5081348;28;20109;-63
2023/03/15 06:52:06;;;;;;;7.32;1.90;;;0.50;99.90;;;;;;5059919;28;20125;-64
2023/03/15 06:54:32;;;;;;;9.40;1.80;;;0.60;99.90;;;;;;5062742;28;20090;-62
2023/03/15 06:56:58;;;;;;;11.30;1.98;;;0.60;99.90;;;;;;5079373;28;20530;-63
2023/03/15 06:59:24;;;;;;;16.40;2.90;;;0.70;99.90;;;;;;5079242;28;20052;-63
2023/03/15 07:01:50;;;;;;;13.18;1.70;;;1.00;99.90;;;;;;5060602;28;20037;-63
2023/03/15 07:04:16;;;;;;;13.43;2.10;;;1.60;99.90;;;;;;5061767;28;20127;-63
2023/03/15 07:06:41;;;;;;;10.88;1.90;;;1.90;99.90;;;;;;5061152;28;20503;-64
2023/03/15 07:09:08;;;;;;;10.35;1.77;;;2.30;99.90;;;;;;5061316;28;20646;-64
2023/03/15 07:11:33;;;;;;;9.27;1.67;;;2.50;99.90;;;;;;5056780;28;20119;-63
2023/03/15 07:13:59;;;;;;;7.82;1.33;;;2.60;99.90;;;;;;5079683;28;20115;-63
2023/03/15 07:16:25;;;;;;;9.02;1.55;;;2.80;99.90;;;;;;5062181;28;20045;-63
2023/03/15 07:18:54;;;;;;;7.85;2.65;;;3.00;99.90;;;;;;5061550;28;20694;-63
2023/03/15 07:21:20;;;;;;;6.82;1.63;;;3.00;99.90;;;;;;5077340;28;20115;-63
2023/03/15 07:23:45;;;;;;;10.50;2.47;;;3.20;99.90;;;;;;5072677;28;20115;-62
2023/03/15 07:26:11;;;;;;;10.75;1.83;;;3.20;99.90;;;;;;5079956;28;20115;-61
2023/03/15 07:28:36;;;;;;;7.70;1.65;;;3.40;99.90;;;;;;5080046;28;20085;-62
2023/03/15 07:31:04;;;;;;;5.65;1.70;;;3.50;99.90;;;;;;5081039;28;20040;-62
2023/03/15 07:33:32;;;;;;;11.50;2.13;;;3.70;99.90;;;;;;5077480;28;20048;-63
2023/03/15 07:35:58;;;;;;;8.55;2.13;;;3.70;99.90;;;;;;5068589;28;20488;-63
2023/03/15 07:38:27;;;;;;;11.05;1.90;;;3.70;99.90;;;;;;5066469;28;20036;-62
2023/03/15 07:40:53;;;;;;;7.88;1.75;;;3.90;99.90;;;;;;5068474;28;20121;-62
2023/03/15 07:43:19;;;;;;;8.20;1.70;;;3.90;99.90;;;;;;5066166;28;20052;-62
2023/03/15 07:45:45;;;;;;;9.05;2.00;;;4.10;99.90;;;;;;5071825;28;20032;-61
2023/03/15 07:48:11;;;;;;;9.50;2.03;;;4.20;99.90;;;;;;5066552;28;20523;-62
2023/03/15 07:50:37;;;;;;;10.88;1.80;;;4.40;99.90;;;;;;5080152;28;20406;-62
2023/03/15 07:53:03;;;;;;;8.70;1.70;;;4.70;99.90;;;;;;5069705;28;20044;-61
2023/03/15 07:55:31;;;;;;;14.35;1.92;;;4.80;99.90;;;;;;5075658;28;20067;-62
2023/03/15 07:57:56;;;;;;;12.95;2.00;;;5.20;99.90;;;;;;5073571;28;20052;-62
2023/03/15 08:00:22;;;;;;;7.00;1.67;;;5.50;99.90;;;;;;5076688;28;20043;-62
2023/03/15 08:02:48;;;;;;;10.80;2.00;;;5.70;99.90;;;;;;5085843;28;20107;-62
2023/03/15 08:05:14;;;;;;;12.20;1.77;;;5.70;99.90;;;;;;5083874;28;20058;-62
2023/03/15 08:07:39;;;;;;;11.90;1.80;;;5.70;99.90;;;;;;5082046;28;20920;-61
2023/03/15 08:10:05;;;;;;;11.90;2.22;;;5.90;99.90;;;;;;5077659;28;20035;-62
2023/03/15 08:12:32;;;;;;;14.23;1.90;;;6.00;99.90;;;;;;5077700;28;20040;-62
2023/03/15 08:14:58;;;;;;;15.88;2.33;;;6.20;99.90;;;;;;5074021;28;20028;-62
2023/03/15 08:17:23;;;;;;;11.38;2.30;;;6.40;99.90;;;;;;5084883;28;20039;-62
2023/03/15 08:19:49;;;;;;;12.07;2.38;;;6.60;99.90;;;;;;5077835;28;20763;-63
2023/03/15 08:22:15;;;;;;;10.95;2.20;;;7.00;99.90;;;;;;5079895;28;20046;-63
2023/03/15 08:24:40;;;;;;;16.58;2.15;;;7.00;99.90;;;;;;5082066;28;20040;-63
2023/03/15 08:27:06;;;;;;;12.40;3.03;;;6.90;99.90;;;;;;5084435;28;20035;-63
2023/03/15 08:29:32;;;;;;;14.68;2.70;;;7.10;99.90;;;;;;5071474;28;20047;-62
2023/03/15 08:31:58;;;;;;;9.18;2.00;;;7.30;99.90;;;;;;5079263;28;20076;-62
2023/03/15 08:34:24;;;;;;;10.40;2.22;;;7.50;99.90;;;;;;5082265;28;20600;-63
2023/03/15 08:36:49;;;;;;;14.27;2.65;;;7.80;99.90;;;;;;5078741;28;20316;-62
2023/03/15 08:39:15;;;;;;;10.43;2.05;;;7.90;99.90;;;;;;5082711;28;20655;-62
2023/03/15 08:41:42;;;;;;;15.90;2.40;;;8.20;99.90;;;;;;5080441;28;20125;-61
2023/03/15 08:44:08;;;;;;;9.20;1.60;;;7.90;99.90;;;;;;5070146;28;20050;-62
2023/03/15 08:46:34;;;;;;;13.00;2.05;;;7.50;98.80;;;;;;5074441;28;20040;-62
2023/03/15 08:49:00;;;;;;;14.50;2.55;;;6.90;99.90;;;;;;5074979;28;20331;-62
2023/03/15 08:51:27;;;;;;;16.08;2.13;;;7.10;99.90;;;;;;5083894;28;20058;-62
2023/03/15 08:53:52;;;;;;;13.23;1.90;;;7.10;99.90;;;;;;5081332;28;20111;-60
2023/03/15 08:56:18;;;;;;;12.98;2.78;;;7.00;99.90;;;;;;5064735;28;20139;-62
2023/03/15 08:58:44;;;;;;;12.73;2.47;;;7.00;99.90;;;;;;5079058;28;20110;-61
2023/03/15 09:01:11;;;;;;;12.38;2.17;;;6.80;99.90;;;;;;5073420;28;20479;-61
2023/03/15 09:03:37;;;;;;;14.30;2.05;;;7.00;99.90;;;;;;5079317;28;20503;-62
2023/03/15 09:06:03;;;;;;;9.30;1.70;;;7.10;99.90;;;;;;5072550;28;20036;-62
2023/03/15 09:08:28;;;;;;;10.10;2.03;;;7.00;99.90;;;;;;5076595;28;20044;-63
2023/03/15 09:10:55;;;;;;;9.63;2.08;;;6.90;99.90;;;;;;5084236;28;20316;-63
2023/03/15 09:13:21;;;;;;;10.10;2.47;;;6.90;99.90;;;;;;5077348;28;20101;-61
2023/03/15 09:15:51;;;;;;;11.13;1.95;;;7.20;99.90;;;;;;5076079;28;20032;-62
2023/03/15 09:18:18;;;;;;;13.15;2.30;;;7.60;99.20;;;;;;5082722;28;20086;-62
2023/03/15 09:20:44;;;;;;;7.65;1.98;;;7.80;97.80;;;;;;5080222;28;20036;-62
2023/03/15 09:23:10;;;;;;;10.13;1.98;;;7.70;93.00;;;;;;5067996;28;20048;-63
2023/03/15 09:25:38;;;;;;;8.98;1.73;;;7.40;95.20;;;;;;5076716;28;20031;-62
2023/03/15 09:28:06;;;;;;;10.45;2.13;;;7.30;94.90;;;;;;5074822;28;20054;-62
2023/03/15 09:30:33;;;;;;;15.52;2.25;;;7.20;95.00;;;;;;5071571;28;20048;-61
2023/03/15 09:32:59;;;;;;;8.18;1.55;;;7.20;94.90;;;;;;5074028;28;20044;-62
2023/03/15 09:35:25;;;;;;;9.48;1.73;;;7.60;93.20;;;;;;5084058;28;20044;-61
2023/03/15 09:37:50;;;;;;;11.40;2.40;;;8.10;90.50;;;;;;5068565;28;20036;-63
2023/03/15 09:40:25;;;;;;;11.88;1.63;;;8.40;77.70;;;;;;5084065;28;20063;-61
2023/03/15 09:43:06;;;;;;;8.95;1.55;;;8.50;75.00;;;;;;5075337;28;20127;-62
2023/03/15 09:46:09;;;;;;;7.70;1.92;;;8.40;76.70;;;;;;5075773;28;20032;-60
2023/03/15 09:48:56;;;;;;;12.07;1.75;;;8.20;79.30;;;;;;5065831;28;20048;-61
2023/03/15 09:51:37;;;;;;;9.52;2.03;;;7.80;76.10;;;;;;5050413;28;20044;-62
2023/03/15 09:54:10;;;;;;;13.75;1.92;;;7.60;78.20;;;;;;5076440;28;20563;-61
2023/03/15 09:56:44;;;;;;;9.68;1.88;;;7.80;81.70;;;;;;5081112;28;20048;-62
2023/03/15 09:59:11;;;;;;;11.30;2.00;;;7.90;84.80;;;;;;5080454;28;20094;-62
2023/03/15 10:01:39;;;;;;;5.97;1.42;;;8.10;86.00;;;;;;5078637;28;20054;-62
2023/03/15 10:04:30;;;;;;;9.65;1.83;;;7.90;85.80;;;;;;5080104;28;20044;-62
2023/03/15 10:06:58;;;;;;;8.93;1.50;;;8.00;87.70;;;;;;5074163;28;20584;-62
2023/03/15 10:09:26;;;;;;;14.70;2.53;;;7.80;87.20;;;;;;5077425;28;20036;-61
2023/03/15 10:12:00;;;;;;;9.07;1.65;;;7.80;88.00;;;;;;5070930;28;20047;-62
2023/03/15 10:14:49;;;;;;;10.60;2.30;;;7.90;87.90;;;;;;5068160;28;20081;-61
2023/03/15 10:17:25;;;;;;;11.10;2.10;;;7.90;83.00;;;;;;5057553;28;20409;-61
2023/03/15 10:19:57;;;;;;;7.63;1.83;;;8.00;80.30;;;;;;5074894;28;20044;-62
2023/03/15 10:22:42;;;;;;;12.45;1.88;;;8.10;79.20;;;;;;5082308;28;20051;-63
2023/03/15 10:25:18;;;;;;;8.85;1.95;;;8.40;76.10;;;;;;5081155;28;20040;-62
2023/03/15 10:27:56;;;;;;;10.35;1.77;;;8.70;75.30;;;;;;5083418;28;20096;-62
2023/03/15 10:30:28;;;;;;;13.50;2.00;;;8.90;73.60;;;;;;5065359;28;20495;-63
2023/03/15 10:33:17;;;;;;;11.82;1.70;;;9.10;72.10;;;;;;5076101;28;20040;-63
2023/03/15 10:35:43;;;;;;;10.43;1.90;;;9.70;71.10;;;;;;5079421;28;20438;-62
2023/03/15 10:38:19;;;;;;;7.93;1.40;;;10.10;70.00;;;;;;5071264;28;20052;-62
2023/03/15 10:40:54;;;;;;;10.18;1.70;;;10.30;66.50;;;;;;5080351;28;20096;-61
2023/03/15 10:43:26;;;;;;;11.85;2.10;;;10.70;66.20;;;;;;5074077;28;20151;-64
2023/03/15 10:46:04;;;;;;;9.05;1.52;;;10.50;62.60;;;;;;5068892;28;20478;-62
2023/03/15 10:48:32;;;;;;;14.25;1.77;;;10.60;60.10;;;;;;5061247;28;20678;-62
2023/03/15 10:51:04;;;;;;;11.93;1.60;;;10.40;61.80;;;;;;5076669;28;20134;-62
2023/03/15 10:53:29;;;;;;;8.45;1.50;;;9.70;59.70;;;;;;5066908;28;20032;-62
2023/03/15 10:56:05;;;;;;;9.95;1.90;;;9.50;61.80;;;;;;5081338;28;20036;-63
2023/03/15 10:58:45;;;;;;;9.85;1.95;;;9.50;61.60;;;;;;5079750;28;20052;-62
2023/03/15 11:01:35;;;;;;;6.97;1.20;;;9.30;63.10;;;;;;5062272;28;20484;-63
2023/03/15 11:04:11;;;;;;;8.88;1.67;;;9.10;65.40;;;;;;5070051;28;20139;-62
2023/03/15 11:06:58;;;;;;;9.65;1.55;;;9.00;69.50;;;;;;5067993;28;20102;-62
2023/03/15 11:09:25;;;;;;;9.82;1.63;;;9.50;67.80;;;;;;5075541;28;20050;-63
2023/03/15 11:12:00;;;;;;;10.70;1.60;;;10.40;65.60;;;;;;5082716;28;20043;-63
2023/03/15 11:14:33;;;;;;;6.97;1.50;;;11.00;62.20;;;;;;5079113;28;20247;-62
2023/03/15 11:17:00;;;;;;;9.68;1.92;;;10.60;58.20;;;;;;5078503;28;20089;-64
2023/03/15 11:19:28;;;;;;;8.60;1.50;;;10.00;60.30;;;;;;5081340;28;20055;-63
2023/03/15 11:21:55;;;;;;;6.10;1.33;;;9.70;60.10;;;;;;5081309;28;20036;-63
2023/03/15 11:24:28;;;;;;;10.15;1.70;;;9.80;61.10;;;;;;5076533;28;20119;-63
2023/03/15 11:26:56;;;;;;;11.60;1.90;;;9.60;62.80;;;;;;5075818;28;20043;-62
2023/03/15 11:29:26;;;;;;;9.20;1.95;;;9.70;63.50;;;;;;5080571;28;20146;-61
2023/03/15 11:31:53;;;;;;;7.63;1.45;;;10.40;61.60;;;;;;5076201;28;20043;-64
2023/03/15 11:34:25;;;;;;;9.35;2.00;;;11.00;57.00;;;;;;5083582;28;20043;-64
2023/03/15 11:36:57;;;;;;;10.20;1.80;;;11.00;56.90;;;;;;5084539;28;20670;-63
2023/03/15 11:39:36;;;;;;;8.02;1.70;;;10.70;57.30;;;;;;5081936;28;20048;-63
2023/03/15 11:42:07;;;;;;;11.43;1.80;;;10.60;56.60;;;;;;5079138;28;20040;-64
2023/03/15 11:44:45;;;;;;;10.20;1.98;;;10.90;58.00;;;;;;5078752;28;20484;-63
2023/03/15 11:47:36;;;;;;;7.80;1.45;;;10.90;57.90;;;;;;5079218;28;20036;-61
2023/03/15 11:50:02;;;;;;;9.07;1.88;;;10.70;56.40;;;;;;5072823;28;20062;-62
2023/03/15 11:52:28;;;;;;;10.35;1.70;;;10.90;58.30;;;;;;5082878;28;20585;-62
2023/03/15 11:54:58;;;;;;;8.95;1.90;;;11.10;57.00;;;;;;5083473;28;20086;-63
2023/03/15 11:57:42;;;;;;;10.32;1.70;;;11.50;57.30;;;;;;5085678;28;20056;-61
2023/03/15 12:00:18;;;;;;;7.95;2.25;;;11.60;54.10;;;;;;5077843;28;20052;-62
2023/03/15 12:02:50;;;;;;;8.10;1.25;;;11.60;54.80;;;;;;5085194;28;20047;-64
2023/03/15 12:05:42;;;;;;;11.68;2.03;;;10.90;56.10;;;;;;5084260;28;20137;-63
2023/03/15 12:08:47;;;;;;;7.95;1.40;;;10.20;57.70;;;;;;5082505;28;20054;-62
2023/03/15 12:11:32;;;;;;;7.25;1.80;;;9.40;59.40;;;;;;5083860;28;20063;-63
2023/03/15 12:13:58;;;;;;;12.60;2.22;;;9.50;59.60;;;;;;5065535;28;20488;-62
2023/03/15 12:16:36;;;;;;;9.07;1.50;;;9.60;59.60;;;;;;5081956;28;20084;-64
2023/03/15 12:19:12;;;;;;;10.55;1.58;;;10.10;58.40;;;;;;5077731;28;20483;-64
2023/03/15 12:21:42;;;;;;;10.48;1.63;;;10.70;57.00;;;;;;5085659;28;20048;-62
2023/03/15 12:24:20;;;;;;;13.57;2.03;;;11.10;55.70;;;;;;5081426;28;20036;-62
2023/03/15 12:26:48;;;;;;;7.72;1.75;;;11.30;52.90;;;;;;5081466;28;20039;-63
2023/03/15 12:29:15;;;;;;;6.20;1.80;;;11.40;52.10;;;;;;5072036;28;20768;-62
2023/03/15 12:31:54;;;;;;;7.90;1.85;;;11.30;51.60;;;;;;5067777;28;20048;-62
2023/03/15 12:34:38;;;;;;;7.93;1.80;;;11.50;50.50;;;;;;5064268;28;20554;-63
2023/03/15 12:37:11;;;;;;;8.80;1.50;;;11.70;51.30;;;;;;5075181;28;20884;-62
2023/03/15 12:39:39;;;;;;;10.70;1.52;;;12.00;52.20;;;;;;5084216;28;20552;-62
2023/03/15 12:42:04;;;;;;;9.13;1.65;;;12.20;50.70;;;;;;5085102;28;20161;-61
2023/03/15 12:44:30;;;;;;;9.68;1.45;;;11.90;49.60;;;;;;5071312;28;20036;-65
2023/03/15 12:47:01;;;;;;;8.98;1.70;;;11.70;49.80;;;;;;5062105;28;20044;-63
2023/03/15 12:49:30;;;;;;;8.68;1.55;;;11.00;49.10;;;;;;5073715;28;20040;-62
2023/03/15 12:52:25;;;;;;;5.97;1.45;;;10.80;50.90;;;;;;5081831;28;20040;-61
2023/03/15 12:54:58;;;;;;;8.27;1.50;;;10.50;52.20;;;;;;5084461;28;20056;-63
2023/03/15 12:57:36;;;;;;;7.53;1.50;;;10.70;53.50;;;;;;5081966;28;20532;-60